Time;durP1;ratioP1;P1;durP2;ratioP2;P2;SDS_P1;SDS_P2;PMS_P1;PMS_P2;Temp;Humidity;BMP_temperature;BMP_pressure;BME280_temperature;BME280_humidity;BME280_pressure;Samples;Min_cycle;Max_cycle;Signal;HPM_P1;HPM_P2
2023/07/25 00:00:09;;;;;;;8.63;4.75;;;;;;;18.11;100.00;-18514.41;5100180;28;20071;-77
2023/07/25 00:02:35;;;;;;;9.27;4.85;;;;;;;17.99;100.00;-18511.41;5105891;28;20556;-77
2023/07/25 00:05:01;;;;;;;12.27;4.43;;;;;;;17.78;100.00;-18505.66;5102700;28;20040;-77
2023/07/25 00:07:26;;;;;;;9.70;4.82;;;;;;;17.75;100.00;-18504.97;5099741;28;20115;-77
2023/07/25 00:09:52;;;;;;;9.85;5.47;;;;;;;17.73;100.00;-18504.44;5090498;28;20391;-77
2023/07/25 00:12:17;;;;;;;8.15;4.95;;;;;;;17.58;100.00;-18500.34;5099645;28;20084;-77
2023/07/25 00:14:42;;;;;;;7.32;4.65;;;;;;;17.37;100.00;-18494.88;5103049;28;20032;-76
2023/07/25 00:17:08;;;;;;;8.35;4.65;;;;;;;17.34;100.00;-18494.06;5082084;28;20068;-77
2023/07/25 00:19:33;;;;;;;8.95;5.82;;;;;;;17.45;100.00;-18496.78;5100321;28;20039;-77
2023/07/25 00:21:58;;;;;;;10.63;4.88;;;;;;;17.30;100.00;-18492.97;5103798;28;20746;-76
2023/07/25 00:24:24;;;;;;;8.77;5.47;;;;;;;17.23;100.00;-18490.91;5099113;28;20067;-77
2023/07/25 00:26:49;;;;;;;9.88;5.07;;;;;;;17.21;100.00;-18490.38;5099201;28;20081;-77
2023/07/25 00:29:17;;;;;;;10.13;6.03;;;;;;;17.15;100.00;-18488.88;5091426;28;20088;-78
2023/07/25 00:31:43;;;;;;;10.03;5.03;;;;;;;17.06;100.00;-18486.56;5110419;28;20153;-79
2023/07/25 00:34:08;;;;;;;10.98;5.72;;;;;;;16.97;100.00;-18483.94;5089408;28;20503;-77
2023/07/25 00:36:34;;;;;;;8.35;5.35;;;;;;;17.00;100.00;-18484.78;5103404;28;20062;-77
2023/07/25 00:38:59;;;;;;;11.38;5.82;;;;;;;16.98;100.00;-18484.38;5104172;28;20047;-77
2023/07/25 00:41:24;;;;;;;10.90;6.07;;;;;;;16.90;100.00;-18482.31;5100186;28;20044;-78
2023/07/25 00:43:50;;;;;;;8.55;5.80;;;;;;;16.94;100.00;-18483.13;5085438;28;20104;-77
2023/07/25 00:46:18;;;;;;;11.40;5.90;;;;;;;16.81;100.00;-18479.72;5107395;28;20040;-77
2023/07/25 00:48:45;;;;;;;9.63;5.70;;;;;;;16.65;100.00;-18475.47;5107499;28;20487;-77
2023/07/25 00:51:10;;;;;;;7.47;5.45;;;;;;;16.74;100.00;-18477.94;5105819;28;20482;-78
2023/07/25 00:53:36;;;;;;;9.68;6.28;;;;;;;16.65;100.00;-18475.63;5102215;28;20047;-78
2023/07/25 00:56:01;;;;;;;11.40;5.93;;;;;;;16.62;100.00;-18474.66;5102434;28;20047;-78
2023/07/25 00:58:28;;;;;;;11.70;5.82;;;;;;;16.61;100.00;-18474.38;5103116;28;20073;-77
2023/07/25 01:01:04;;;;;;;11.75;5.82;;;;;;;16.71;100.00;-18477.13;5105126;28;20043;-77
2023/07/25 01:03:32;;;;;;;9.13;6.10;;;;;;;16.47;100.00;-18470.84;5103832;28;20457;-77
2023/07/25 01:06:01;;;;;;;10.07;6.22;;;;;;;16.41;100.00;-18469.06;5103027;28;20486;-77
2023/07/25 01:08:26;;;;;;;10.75;6.15;;;;;;;16.19;100.00;-18463.31;5103200;28;20040;-78
2023/07/25 01:10:52;;;;;;;11.35;6.10;;;;;;;16.09;100.00;-18460.44;5103999;28;20039;-77
2023/07/25 01:13:17;;;;;;;11.40;6.63;;;;;;;16.14;100.00;-18461.81;5103276;28;20618;-77
2023/07/25 01:15:43;;;;;;;9.77;5.95;;;;;;;16.12;100.00;-18461.41;5100003;28;20032;-78
2023/07/25 01:18:09;;;;;;;9.75;6.50;;;;;;;16.16;100.00;-18462.38;5083768;28;20046;-78
2023/07/25 01:20:35;;;;;;;10.85;6.45;;;;;;;16.16;100.00;-18462.50;5099847;28;20065;-78
2023/07/25 01:23:02;;;;;;;10.57;7.13;;;;;;;16.04;100.00;-18459.09;5102487;28;20059;-77
2023/07/25 01:25:28;;;;;;;11.10;6.78;;;;;;;16.09;100.00;-18460.59;5103186;28;20680;-77
2023/07/25 01:27:56;;;;;;;13.65;7.70;;;;;;;16.07;100.00;-18459.91;5105306;28;20039;-77
2023/07/25 01:30:21;;;;;;;12.20;6.90;;;;;;;15.99;100.00;-18458.00;5100180;28;20048;-77
2023/07/25 01:32:47;;;;;;;9.23;6.38;;;;;;;16.12;100.00;-18461.28;5103518;28;20093;-75
2023/07/25 01:35:12;;;;;;;13.55;7.80;;;;;;;16.15;100.00;-18462.22;5098627;28;20032;-77
2023/07/25 01:37:37;;;;;;;10.63;6.72;;;;;;;16.14;100.00;-18461.94;5102489;28;21420;-77
2023/07/25 01:40:03;;;;;;;13.05;7.45;;;;;;;16.13;100.00;-18461.53;5107159;28;20142;-76
2023/07/25 01:42:28;;;;;;;11.82;6.97;;;;;;;16.06;100.00;-18459.63;5101004;28;20154;-76
2023/07/25 01:44:54;;;;;;;12.95;7.00;;;;;;;15.97;100.00;-18457.44;5107492;28;20040;-77
2023/07/25 01:47:25;;;;;;;10.02;7.00;;;;;;;16.10;100.00;-18460.72;5090286;28;20059;-77
2023/07/25 01:49:50;;;;;;;9.05;6.85;;;;;;;15.99;100.00;-18457.84;5105325;28;20044;-77
2023/07/25 01:52:16;;;;;;;10.13;6.78;;;;;;;16.06;100.00;-18459.63;5088169;28;20398;-77
2023/07/25 01:54:41;;;;;;;10.98;7.57;;;;;;;15.89;100.00;-18455.13;5106003;28;20502;-76
2023/07/25 01:57:06;;;;;;;16.83;7.40;;;;;;;15.81;100.00;-18452.94;5088911;28;20063;-76
2023/07/25 01:59:32;;;;;;;11.43;7.28;;;;;;;15.76;100.00;-18451.69;5105440;28;20116;-77
2023/07/25 02:01:57;;;;;;;11.20;7.10;;;;;;;15.85;100.00;-18454.16;5108807;28;20790;-76
2023/07/25 02:04:22;;;;;;;11.52;8.20;;;;;;;15.72;100.00;-18450.59;5105878;28;20068;-77
2023/07/25 02:06:48;;;;;;;12.05;7.85;;;;;;;15.78;100.00;-18452.25;5101574;28;20062;-76
2023/07/25 02:09:13;;;;;;;12.88;8.93;;;;;;;15.78;100.00;-18452.25;5107421;28;20106;-77
2023/07/25 02:11:38;;;;;;;14.45;7.80;;;;;;;15.86;100.00;-18454.31;5086313;28;20039;-78
2023/07/25 02:14:04;;;;;;;14.02;7.70;;;;;;;15.74;100.00;-18451.16;5107529;28;20060;-76
2023/07/25 02:16:29;;;;;;;13.98;8.43;;;;;;;15.65;100.00;-18448.69;5104687;28;20130;-76
2023/07/25 02:18:55;;;;;;;12.90;8.50;;;;;;;15.60;100.00;-18447.47;5102502;28;20047;-78
2023/07/25 02:21:20;;;;;;;11.90;7.95;;;;;;;15.60;100.00;-18447.31;5106763;28;20077;-76
2023/07/25 02:23:45;;;;;;;13.25;8.10;;;;;;;15.53;100.00;-18445.69;5103770;28;20040;-78
2023/07/25 02:26:11;;;;;;;14.25;8.20;;;;;;;15.46;100.00;-18443.75;5104651;28;20101;-76
2023/07/25 02:28:36;;;;;;;12.90;8.68;;;;;;;15.45;100.00;-18443.34;5104926;28;20498;-75
2023/07/25 02:31:01;;;;;;;13.10;8.23;;;;;;;15.40;100.00;-18442.13;5105435;28;20395;-76
2023/07/25 02:33:27;;;;;;;12.07;8.05;;;;;;;15.57;100.00;-18446.78;5102447;28;20403;-77
2023/07/25 02:35:52;;;;;;;11.63;8.43;;;;;;;15.65;100.00;-18448.69;5105350;28;20115;-78
2023/07/25 02:38:18;;;;;;;13.60;8.85;;;;;;;15.66;100.00;-18449.09;5104920;28;20031;-77
2023/07/25 02:40:44;;;;;;;12.18;8.25;;;;;;;15.77;100.00;-18452.13;5103868;28;20048;-77
2023/07/25 02:43:10;;;;;;;15.13;9.25;;;;;;;15.69;100.00;-18449.91;5094202;28;20086;-76
2023/07/25 02:45:35;;;;;;;13.45;8.75;;;;;;;15.69;100.00;-18449.91;5075183;28;20495;-78
2023/07/25 02:48:00;;;;;;;14.48;9.50;;;;;;;15.71;100.00;-18450.34;5102038;28;20048;-78
2023/07/25 02:50:26;;;;;;;13.20;8.82;;;;;;;15.54;100.00;-18445.81;5105054;28;20035;-78
2023/07/25 02:52:51;;;;;;;15.60;8.35;;;;;;;15.49;100.00;-18444.44;5105952;28;20047;-76
2023/07/25 02:55:18;;;;;;;13.13;9.27;;;;;;;15.53;100.00;-18445.69;5106980;28;20035;-78
2023/07/25 02:57:43;;;;;;;15.05;9.10;;;;;;;15.58;100.00;-18446.91;5102851;28;20035;-77
2023/07/25 03:00:09;;;;;;;13.77;8.50;;;;;;;15.51;100.00;-18445.00;5105617;28;20070;-78
2023/07/25 03:02:35;;;;;;;16.05;8.90;;;;;;;15.39;100.00;-18441.84;5086731;28;20101;-78
2023/07/25 03:05:00;;;;;;;14.38;8.23;;;;;;;15.33;100.00;-18440.22;5106647;28;20118;-78
2023/07/25 03:07:25;;;;;;;16.55;8.52;;;;;;;15.34;100.00;-18440.47;5100724;28;20635;-75
2023/07/25 03:09:51;;;;;;;14.35;8.68;;;;;;;15.46;100.00;-18443.75;5104247;28;20043;-78
2023/07/25 03:12:16;;;;;;;13.75;9.02;;;;;;;15.52;100.00;-18445.41;5100326;28;20123;-77
2023/07/25 03:14:41;;;;;;;14.02;9.35;;;;;;;15.47;100.00;-18444.03;5104819;28;20079;-76
2023/07/25 03:17:07;;;;;;;14.93;9.20;;;;;;;15.31;100.00;-18439.66;5106984;28;20089;-78
2023/07/25 03:19:32;;;;;;;13.68;9.52;;;;;;;15.36;100.00;-18441.03;5104309;28;20031;-77
2023/07/25 03:21:57;;;;;;;15.00;9.93;;;;;;;15.34;100.00;-18440.63;5102321;28;20105;-76
2023/07/25 03:24:23;;;;;;;14.52;7.63;;;;;;;15.39;100.00;-18441.84;5105512;28;20043;-77
2023/07/25 03:26:48;;;;;;;13.40;8.48;;;;;;;15.44;100.00;-18443.06;5104710;28;20147;-76
2023/07/25 03:29:13;;;;;;;17.15;9.57;;;;;;;15.52;100.00;-18445.28;5101540;28;20048;-78
2023/07/25 03:31:39;;;;;;;18.63;9.43;;;;;;;15.54;100.00;-18445.94;5103200;28;20039;-78
2023/07/25 03:34:04;;;;;;;14.95;8.40;;;;;;;15.42;100.00;-18442.53;5105342;28;20043;-76
2023/07/25 03:36:29;;;;;;;16.70;9.90;;;;;;;15.46;100.00;-18443.75;5101647;28;20066;-77
2023/07/25 03:38:55;;;;;;;14.90;9.30;;;;;;;15.50;100.00;-18444.72;5087401;28;20100;-77
2023/07/25 03:41:20;;;;;;;14.07;8.48;;;;;;;15.33;100.00;-18440.22;5104646;28;20447;-77
2023/07/25 03:43:45;;;;;;;14.90;8.65;;;;;;;15.22;100.00;-18437.19;5103417;28;20465;-77
2023/07/25 03:46:11;;;;;;;16.80;9.93;;;;;;;15.33;100.00;-18440.22;5103709;28;20047;-77
2023/07/25 03:48:36;;;;;;;17.50;9.80;;;;;;;15.33;100.00;-18440.22;5103199;28;20036;-76
2023/07/25 03:51:02;;;;;;;16.98;8.23;;;;;;;15.26;100.00;-18438.28;5104123;28;20126;-77
2023/07/25 03:53:27;;;;;;;16.02;8.65;;;;;;;15.19;100.00;-18436.38;5102350;28;20043;-76
2023/07/25 03:55:52;;;;;;;15.00;9.95;;;;;;;15.28;100.00;-18438.84;5088937;28;20054;-77
2023/07/25 03:58:18;;;;;;;16.13;9.13;;;;;;;15.38;100.00;-18441.56;5102535;28;20074;-76
2023/07/25 04:00:43;;;;;;;13.82;9.40;;;;;;;15.46;100.00;-18443.63;5101951;28;21736;-76
2023/07/25 04:03:08;;;;;;;13.95;9.32;;;;;;;15.57;100.00;-18446.63;5101872;28;20062;-78
2023/07/25 04:05:34;;;;;;;13.02;8.40;;;;;;;15.42;100.00;-18442.66;5103772;28;20048;-77
2023/07/25 04:07:59;;;;;;;15.55;8.95;;;;;;;15.36;100.00;-18441.03;5087158;28;20126;-76
2023/07/25 04:10:26;;;;;;;15.60;9.13;;;;;;;15.40;100.00;-18442.13;5103593;28;20756;-77
2023/07/25 04:12:51;;;;;;;18.15;9.50;;;;;;;15.44;100.00;-18443.22;5103159;28;20050;-77
2023/07/25 04:15:17;;;;;;;15.52;10.00;;;;;;;15.45;100.00;-18443.50;5106456;28;20036;-76
2023/07/25 04:17:42;;;;;;;14.00;9.48;;;;;;;15.50;100.00;-18444.72;5103075;28;20059;-76
2023/07/25 04:20:08;;;;;;;16.85;9.25;;;;;;;15.42;100.00;-18442.53;5105982;28;20423;-75
2023/07/25 04:22:33;;;;;;;14.35;9.35;;;;;;;15.60;100.00;-18447.31;5083431;28;20649;-76
2023/07/25 04:24:58;;;;;;;14.18;9.20;;;;;;;15.53;100.00;-18445.53;5104535;28;20043;-78
2023/07/25 04:27:24;;;;;;;16.20;8.75;;;;;;;15.46;100.00;-18443.75;5103742;28;20388;-76
2023/07/25 04:29:49;;;;;;;17.33;9.75;;;;;;;15.58;100.00;-18447.03;5102598;28;20490;-76
2023/07/25 04:32:15;;;;;;;14.70;8.77;;;;;;;15.48;100.00;-18444.31;5104510;28;20040;-77
2023/07/25 04:34:40;;;;;;;12.40;8.85;;;;;;;15.47;100.00;-18443.91;5101311;28;20043;-79
2023/07/25 04:37:05;;;;;;;15.77;9.80;;;;;;;15.42;100.00;-18442.66;5103945;28;20035;-77
2023/07/25 04:39:31;;;;;;;14.48;9.05;;;;;;;15.58;100.00;-18447.03;5102241;28;20050;-77
2023/07/25 04:41:56;;;;;;;18.50;9.98;;;;;;;15.60;100.00;-18447.47;5097363;28;20392;-77
2023/07/25 04:44:21;;;;;;;14.05;9.20;;;;;;;15.55;100.00;-18446.09;5103565;28;20039;-78
2023/07/25 04:46:47;;;;;;;12.40;8.75;;;;;;;15.64;100.00;-18448.41;5097654;28;20043;-78
2023/07/25 04:49:12;;;;;;;15.00;9.35;;;;;;;15.61;100.00;-18447.59;5104364;28;20470;-78
2023/07/25 04:51:39;;;;;;;17.98;9.75;;;;;;;15.68;100.00;-18449.66;5099956;28;20555;-76
2023/07/25 04:54:04;;;;;;;19.55;10.32;;;;;;;15.77;100.00;-18452.13;5086574;28;20444;-77
2023/07/25 04:56:30;;;;;;;18.48;8.70;;;;;;;15.65;100.00;-18448.69;5101018;28;20138;-77
2023/07/25 04:58:56;;;;;;;13.02;8.05;;;;;;;15.64;100.00;-18448.41;5103512;28;20039;-77
2023/07/25 05:01:21;;;;;;;16.70;9.32;;;;;;;15.67;100.00;-18449.38;5101574;28;20040;-78
2023/07/25 05:03:46;;;;;;;15.02;8.77;;;;;;;15.76;100.00;-18451.69;5102397;28;20132;-78
2023/07/25 05:06:12;;;;;;;14.82;7.72;;;;;;;15.77;100.00;-18451.97;5102095;28;20036;-78
2023/07/25 05:08:37;;;;;;;13.35;8.35;;;;;;;15.85;100.00;-18454.03;5103190;28;20055;-78
2023/07/25 05:11:02;;;;;;;14.95;7.53;;;;;;;15.94;100.00;-18456.63;5086235;28;20132;-76
2023/07/25 05:13:28;;;;;;;12.90;8.00;;;;;;;16.00;100.00;-18458.25;5105801;28;20038;-76
2023/07/25 05:15:53;;;;;;;14.43;9.07;;;;;;;16.15;100.00;-18462.22;5107096;28;20596;-76
2023/07/25 05:18:18;;;;;;;12.02;7.25;;;;;;;16.06;100.00;-18459.63;5091008;28;20040;-77
2023/07/25 05:20:44;;;;;;;14.82;9.02;;;;;;;16.05;100.00;-18459.34;5106213;28;20090;-76
2023/07/25 05:23:10;;;;;;;12.18;6.78;;;;;;;16.11;100.00;-18461.00;5110165;28;20139;-77
2023/07/25 05:25:35;;;;;;;13.93;7.85;;;;;;;16.13;100.00;-18461.69;5106232;28;20043;-77
2023/07/25 05:28:00;;;;;;;13.60;6.72;;;;;;;16.27;100.00;-18465.38;5107581;28;20042;-75
2023/07/25 05:30:26;;;;;;;13.02;7.97;;;;;;;16.29;100.00;-18465.91;5111586;28;20043;-75
2023/07/25 05:32:51;;;;;;;16.45;7.95;;;;;;;16.22;100.00;-18464.13;5088398;28;20053;-77
2023/07/25 05:35:16;;;;;;;15.02;8.55;;;;;;;16.14;100.00;-18461.81;5104980;28;20066;-79
2023/07/25 05:37:42;;;;;;;14.77;7.55;;;;;;;16.31;100.00;-18466.47;5105161;28;20040;-77
2023/07/25 05:40:07;;;;;;;15.63;7.75;;;;;;;16.38;100.00;-18468.25;5107147;28;20134;-77
2023/07/25 05:42:33;;;;;;;12.07;7.28;;;;;;;16.35;100.00;-18467.56;5104594;28;20491;-77
2023/07/25 05:44:59;;;;;;;14.35;7.70;;;;;;;16.41;100.00;-18469.19;5105113;28;20051;-79
2023/07/25 05:47:26;;;;;;;14.80;7.65;;;;;;;16.53;100.00;-18472.19;5089608;28;20043;-78
2023/07/25 05:49:51;;;;;;;13.10;7.60;;;;;;;16.46;100.00;-18470.44;5106278;28;20779;-78
2023/07/25 05:52:17;;;;;;;13.55;7.60;;;;;;;16.48;100.00;-18470.97;5092994;28;20044;-78
2023/07/25 05:54:43;;;;;;;13.15;7.63;;;;;;;16.65;100.00;-18475.47;5108936;28;20035;-77
2023/07/25 05:57:09;;;;;;;12.95;7.57;;;;;;;16.65;100.00;-18475.47;5109730;28;20036;-78
2023/07/25 05:59:34;;;;;;;11.32;7.07;;;;;;;16.69;100.00;-18476.72;5107767;28;20217;-79
2023/07/25 06:02:00;;;;;;;14.60;6.75;;;;;;;16.89;100.00;-18481.91;5108272;28;20047;-78
2023/07/25 06:04:25;;;;;;;11.73;6.43;;;;;;;16.91;100.00;-18482.59;5109204;28;20402;-75
2023/07/25 06:06:50;;;;;;;16.10;6.80;;;;;;;17.01;100.00;-18485.03;5105479;28;20146;-76
2023/07/25 06:09:16;;;;;;;11.57;5.95;;;;;;;16.97;100.00;-18483.94;5111072;28;20095;-78
2023/07/25 06:11:41;;;;;;;9.65;6.82;;;;;;;17.35;100.00;-18494.19;5089201;28;20108;-78
2023/07/25 06:14:06;;;;;;;11.90;6.30;;;;;;;17.40;100.00;-18495.56;5107160;28;20097;-78
2023/07/25 06:16:32;;;;;;;11.15;6.00;;;;;;;17.50;100.00;-18498.16;5108630;28;20036;-76
2023/07/25 06:18:57;;;;;;;11.07;5.65;;;;;;;17.50;100.00;-18498.16;5112210;28;20046;-78
2023/07/25 06:21:23;;;;;;;9.77;5.70;;;;;;;17.50;100.00;-18498.28;5110840;28;20567;-78
2023/07/25 06:23:48;;;;;;;9.13;4.68;;;;;;;17.56;100.00;-18499.78;5110165;28;20039;-77
2023/07/25 06:26:13;;;;;;;10.02;5.97;;;;;;;17.79;100.00;-18505.94;5112111;28;20445;-78
2023/07/25 06:28:40;;;;;;;9.75;5.53;;;;;;;17.90;100.00;-18508.94;5110890;28;20036;-78
2023/07/25 06:31:05;;;;;;;12.65;5.88;;;;;;;17.92;100.00;-18509.34;5109890;28;20659;-77
2023/07/25 06:33:31;;;;;;;10.02;5.70;;;;;;;17.72;100.00;-18504.03;5108773;28;20049;-77
2023/07/25 06:35:56;;;;;;;10.40;4.93;;;;;;;17.67;100.00;-18502.78;5107982;28;20032;-77
2023/07/25 06:38:21;;;;;;;11.40;5.50;;;;;;;17.70;100.00;-18503.63;5108297;28;20054;-75
2023/07/25 06:40:47;;;;;;;9.68;4.97;;;;;;;17.77;100.00;-18505.53;5108819;28;20494;-76
2023/07/25 06:43:12;;;;;;;10.52;5.13;;;;;;;17.86;100.00;-18507.72;5106566;28;20043;-76
2023/07/25 06:45:38;;;;;;;8.38;4.78;;;;;;;17.96;100.00;-18510.56;5109227;28;20052;-79
2023/07/25 06:48:03;;;;;;;11.07;4.70;;;;;;;18.13;100.00;-18514.94;5108795;28;20036;-77
2023/07/25 06:50:29;;;;;;;8.40;4.10;;;;;;;18.20;100.00;-18516.84;5103240;28;20039;-79
2023/07/25 06:52:55;;;;;;;8.18;4.20;;;;;;;18.17;100.00;-18516.16;5105794;27;20146;-77
2023/07/25 06:55:20;;;;;;;6.40;3.55;;;;;;;18.19;100.00;-18516.72;5107183;27;20043;-77
2023/07/25 06:57:46;;;;;;;6.38;3.53;;;;;;;18.40;100.00;-18522.16;5106277;28;20157;-77
2023/07/25 07:00:12;;;;;;;9.07;3.45;;;;;;;18.62;100.00;-18528.16;5107533;28;20047;-77
2023/07/25 07:02:37;;;;;;;7.05;3.17;;;;;;;18.65;100.00;-18528.97;5107272;28;20531;-77
2023/07/25 07:05:03;;;;;;;6.90;3.15;;;;;;;18.56;100.00;-18526.53;5109102;28;20047;-77
2023/07/25 07:07:29;;;;;;;7.28;3.17;;;;;;;18.89;100.00;-18535.25;5106154;28;20055;-76
2023/07/25 07:09:54;;;;;;;7.47;2.70;;;;;;;18.56;100.00;-18526.38;5105908;28;20116;-77
2023/07/25 07:12:19;;;;;;;6.93;3.10;;;;;;;18.78;100.00;-18532.25;5087737;28;20050;-77
2023/07/25 07:14:45;;;;;;;7.63;2.90;;;;;;;18.77;100.00;-18532.00;5088671;28;20523;-78
2023/07/25 07:17:10;;;;;;;8.45;3.13;;;;;;;18.96;100.00;-18537.16;5107199;28;20039;-77
2023/07/25 07:19:36;;;;;;;8.52;2.83;;;;;;;18.86;100.00;-18534.44;5106426;28;20403;-77
2023/07/25 07:22:01;;;;;;;7.00;2.80;;;;;;;18.76;100.00;-18531.72;5103388;28;20503;-77
2023/07/25 07:24:26;;;;;;;6.65;2.72;;;;;;;18.91;100.00;-18535.94;5107603;28;20428;-77
2023/07/25 07:26:52;;;;;;;7.43;2.38;;;;;;;19.09;100.00;-18540.56;5105986;28;20020;-77
2023/07/25 07:29:17;;;;;;;7.63;3.00;;;;;;;19.01;100.00;-18538.41;5086905;28;20050;-78
2023/07/25 07:31:42;;;;;;;6.38;2.80;;;;;;;18.97;100.00;-18537.31;5100498;28;20036;-77
2023/07/25 07:34:10;;;;;;;6.72;2.60;;;;;;;19.14;100.00;-18542.06;5104962;28;20063;-78
2023/07/25 07:36:35;;;;;;;6.78;2.17;;;;;;;19.26;100.00;-18545.06;5086422;28;20066;-78
2023/07/25 07:39:01;;;;;;;7.50;2.50;;;;;;;19.32;100.00;-18546.72;5102191;28;20043;-78
2023/07/25 07:41:26;;;;;;;5.35;2.33;;;;;;;19.29;100.00;-18545.88;5105313;28;20036;-76
2023/07/25 07:43:51;;;;;;;8.23;2.40;;;;;;;19.40;100.00;-18548.88;5107506;28;20039;-79
2023/07/25 07:46:17;;;;;;;7.45;2.45;;;;;;;19.59;100.00;-18553.91;5107886;28;20044;-76
2023/07/25 07:48:43;;;;;;;5.60;2.33;;;;;;;19.64;100.00;-18555.16;5087464;28;20044;-77
2023/07/25 07:51:09;;;;;;;8.88;2.22;;;;;;;19.54;100.00;-18552.69;5109073;28;20039;-78
2023/07/25 07:53:34;;;;;;;7.25;2.20;;;;;;;19.52;100.00;-18552.16;5109824;28;20031;-78
2023/07/25 07:56:04;;;;;;;9.45;2.33;;;;;;;19.50;100.00;-18551.59;5108320;28;20079;-78
2023/07/25 07:58:29;;;;;;;5.50;2.25;;;;;;;19.35;100.00;-18547.53;5103825;28;20051;-77
2023/07/25 08:00:54;;;;;;;10.82;2.55;;;;;;;19.32;100.00;-18546.72;5108552;28;20203;-77
2023/07/25 08:03:21;;;;;;;6.63;1.98;;;;;;;19.33;100.00;-18547.13;5096330;28;20047;-76
2023/07/25 08:05:46;;;;;;;4.78;1.85;;;;;;;19.31;100.00;-18546.44;5103164;28;20048;-77
2023/07/25 08:08:14;;;;;;;4.88;1.80;;;;;;;19.36;100.00;-18547.78;5105314;28;20095;-76
2023/07/25 08:10:39;;;;;;;5.60;2.00;;;;;;;19.50;100.00;-18551.47;5108634;28;20035;-79
2023/07/25 08:13:05;;;;;;;5.60;1.60;;;;;;;19.42;100.00;-18549.28;5104767;28;20065;-78
2023/07/25 08:15:30;;;;;;;6.53;1.75;;;;;;;19.38;100.00;-18548.34;5105141;28;20464;-77
2023/07/25 08:17:56;;;;;;;7.18;1.80;;;;;;;19.46;100.00;-18550.53;5110176;28;20099;-77
2023/07/25 08:20:21;;;;;;;6.72;1.90;;;;;;;19.63;100.00;-18554.88;5108034;28;20052;-78
2023/07/25 08:22:46;;;;;;;4.97;1.83;;;;;;;19.58;100.00;-18553.66;5105880;28;20162;-77
2023/07/25 08:25:12;;;;;;;6.25;2.03;;;;;;;19.40;100.00;-18548.88;5107853;28;20088;-79
2023/07/25 08:27:37;;;;;;;5.07;1.48;;;;;;;19.52;100.00;-18552.03;5106611;28;20044;-76
2023/07/25 08:30:03;;;;;;;5.40;1.77;;;;;;;19.64;100.00;-18555.28;5107683;28;20050;-77
2023/07/25 08:32:28;;;;;;;7.85;2.10;;;;;;;19.73;100.00;-18557.75;5106140;28;20063;-76
2023/07/25 08:34:54;;;;;;;6.32;1.67;;;;;;;19.78;100.00;-18559.09;5106532;28;20034;-77
2023/07/25 08:37:19;;;;;;;6.20;2.45;;;;;;;19.69;100.00;-18556.66;5107304;28;20110;-77
2023/07/25 08:39:44;;;;;;;5.30;2.45;;;;;;;19.72;100.00;-18557.47;5104595;28;20063;-77
2023/07/25 08:42:11;;;;;;;8.43;2.30;;;;;;;19.67;100.00;-18555.97;5103037;28;20050;-77
2023/07/25 08:44:39;;;;;;;9.93;2.30;;;;;;;19.69;100.00;-18556.53;5099345;28;20035;-78
2023/07/25 08:47:12;;;;;;;5.38;2.00;;;;;;;19.70;100.00;-18556.94;5089748;28;20067;-78
2023/07/25 08:49:40;;;;;;;8.00;2.30;;;;;;;19.67;100.00;-18555.97;5105914;28;20031;-77
2023/07/25 08:52:08;;;;;;;7.20;2.20;;;;;;;19.62;100.00;-18554.75;5105817;28;20054;-78
2023/07/25 08:54:36;;;;;;;6.47;1.90;;;;;;;19.77;100.00;-18558.69;5111175;28;20031;-78
2023/07/25 08:57:02;;;;;;;11.57;2.20;;;;;;;19.63;100.00;-18554.88;5107373;28;20055;-77
2023/07/25 08:59:28;;;;;;;7.28;1.92;;;;;;;19.51;100.00;-18551.88;5109935;28;20063;-78
2023/07/25 09:01:53;;;;;;;10.15;2.42;;;;;;;19.59;100.00;-18554.06;5107495;28;20506;-77
2023/07/25 09:04:23;;;;;;;5.90;1.80;;;;;;;19.63;100.00;-18554.88;5108457;28;20343;-76
2023/07/25 09:06:48;;;;;;;7.75;2.13;;;;;;;19.68;100.00;-18556.25;5108075;28;20051;-77
2023/07/25 09:09:14;;;;;;;5.50;2.03;;;;;;;19.60;100.00;-18554.34;5094462;28;20096;-77
2023/07/25 09:11:40;;;;;;;7.97;2.33;;;;;;;19.54;100.00;-18552.56;5088730;28;20160;-76
2023/07/25 09:14:05;;;;;;;7.32;2.28;;;;;;;19.77;100.00;-18558.69;5109792;28;20132;-76
2023/07/25 09:16:32;;;;;;;10.43;3.00;;;;;;;19.72;100.00;-18557.47;5108110;28;20441;-77
2023/07/25 09:18:57;;;;;;;9.30;2.55;;;;;;;19.63;100.00;-18555.00;5087617;28;20040;-77
2023/07/25 09:21:22;;;;;;;8.38;2.53;;;;;;;19.52;100.00;-18552.16;5103380;28;20078;-77
2023/07/25 09:23:58;;;;;;;9.57;2.90;;;;;;;19.63;100.00;-18555.00;5101932;28;20048;-78
2023/07/25 09:26:26;;;;;;;7.80;2.53;;;;;;;19.70;100.00;-18556.94;5090881;28;20065;-77
2023/07/25 09:28:53;;;;;;;5.95;2.05;;;;;;;19.55;100.00;-18552.84;5104968;28;20043;-78
2023/07/25 09:31:20;;;;;;;13.52;3.00;;;;;;;19.60;100.00;-18554.34;5101856;28;20039;-76
2023/07/25 09:33:48;;;;;;;4.05;2.00;;;;;;;19.67;100.00;-18556.09;5102947;28;20047;-77
2023/07/25 09:36:14;;;;;;;6.70;2.17;;;;;;;19.79;100.00;-18559.25;5106408;28;20073;-78
2023/07/25 09:38:52;;;;;;;8.80;2.03;;;;;;;19.74;100.00;-18557.88;5087586;28;20043;-76
2023/07/25 09:41:19;;;;;;;9.10;2.30;;;;;;;19.79;100.00;-18559.38;5101351;28;20043;-78
2023/07/25 09:43:44;;;;;;;5.97;1.60;;;;;;;19.69;100.00;-18556.53;5105944;28;20470;-77
2023/07/25 09:46:11;;;;;;;6.82;2.63;;;;;;;20.06;100.00;-18566.59;5104060;28;20050;-76
2023/07/25 09:48:51;;;;;;;7.15;1.80;;;;;;;20.09;99.76;-18567.13;5086306;28;20035;-78
2023/07/25 09:51:17;;;;;;;7.78;2.17;;;;;;;19.96;95.88;-18563.88;5104910;28;20039;-77
2023/07/25 09:53:43;;;;;;;6.20;1.70;;;;;;;20.08;97.25;-18567.00;5108217;28;20131;-79
2023/07/25 09:56:09;;;;;;;4.88;2.00;;;;;;;20.34;96.76;-18573.81;5102901;28;20058;-76
2023/07/25 09:58:35;;;;;;;4.13;1.42;;;;;;;20.31;92.35;-18573.13;5101867;28;20127;-74
2023/07/25 10:01:02;;;;;;;5.25;1.30;;;;;;;20.53;89.51;-18578.97;5103032;28;20124;-77
2023/07/25 10:03:29;;;;;;;3.80;1.13;;;;;;;20.58;84.81;-18580.34;5102260;28;20069;-78
2023/07/25 10:05:55;;;;;;;6.32;1.70;;;;;;;20.48;83.66;-18577.75;5105478;28;20092;-77
2023/07/25 10:08:21;;;;;;;3.50;1.42;;;;;;;20.49;89.71;-18577.88;5107155;28;20044;-77
2023/07/25 10:10:47;;;;;;;6.72;1.65;;;;;;;20.55;91.24;-18579.53;5104814;28;20040;-78
2023/07/25 10:13:14;;;;;;;4.07;1.55;;;;;;;20.41;90.51;-18575.72;5102366;28;20044;-78
2023/07/25 10:15:40;;;;;;;4.28;1.70;;;;;;;20.33;90.92;-18573.66;5101256;28;20040;-77
2023/07/25 10:18:19;;;;;;;5.35;1.85;;;;;;;20.33;94.40;-18573.66;5090006;28;20044;-75
2023/07/25 10:20:45;;;;;;;4.90;1.73;;;;;;;20.28;97.12;-18572.31;5105977;28;20067;-77
2023/07/25 10:23:11;;;;;;;5.88;1.92;;;;;;;20.02;100.00;-18565.38;5102875;28;20462;-77
2023/07/25 10:25:37;;;;;;;10.45;2.42;;;;;;;20.15;100.00;-18568.78;5102974;28;20049;-77
2023/07/25 10:28:03;;;;;;;4.45;1.90;;;;;;;20.26;99.35;-18571.75;5105306;28;20116;-76
2023/07/25 10:30:31;;;;;;;5.53;2.13;;;;;;;20.35;99.18;-18574.22;5102189;28;20372;-78
2023/07/25 10:33:02;;;;;;;9.40;2.75;;;;;;;20.14;100.00;-18568.50;5102482;28;20050;-76
2023/07/25 10:35:57;;;;;;;7.50;2.33;;;;;;;20.25;100.00;-18571.50;5105856;28;20376;-76
2023/07/25 10:38:39;;;;;;;6.55;2.15;;;;;;;20.29;100.00;-18572.59;5054158;28;20039;-76
2023/07/25 10:41:08;;;;;;;7.75;2.20;;;;;;;20.42;100.00;-18576.13;5075959;28;20044;-77
2023/07/25 10:44:00;;;;;;;5.65;2.47;;;;;;;20.56;100.00;-18579.78;5103097;28;20058;-77
2023/07/25 10:46:33;;;;;;;5.10;2.30;;;;;;;20.57;100.00;-18579.94;5072724;28;20044;-76
2023/07/25 10:49:02;;;;;;;12.30;3.20;;;;;;;20.65;100.00;-18582.09;5103793;28;20046;-77
2023/07/25 10:51:48;;;;;;;9.15;2.15;;;;;;;20.77;95.82;-18585.38;5104048;28;20032;-76
2023/07/25 10:54:14;;;;;;;7.05;2.03;;;;;;;21.28;94.17;-18598.84;5055417;28;20115;-76
2023/07/25 10:56:40;;;;;;;5.60;2.08;;;;;;;21.29;89.37;-18599.25;5079849;28;20590;-77
2023/07/25 10:59:12;;;;;;;5.00;1.85;;;;;;;21.46;87.33;-18603.59;5102541;28;20039;-77
2023/07/25 11:01:47;;;;;;;5.20;2.05;;;;;;;21.64;88.88;-18608.50;5097475;28;20034;-77
2023/07/25 11:04:28;;;;;;;4.93;1.95;;;;;;;21.83;93.10;-18613.66;5099644;28;20096;-77
2023/07/25 11:06:55;;;;;;;3.67;1.70;;;;;;;21.83;90.41;-18613.66;5098341;28;20057;-77
2023/07/25 11:09:21;;;;;;;7.30;2.70;;;;;;;21.79;88.10;-18612.44;5101495;28;20035;-77